Rechercher aéroport 
image banner adimage banner adimage banner ad
image banner ad

KFAT - Fresno Yosemite Intl

Situé à Fresno, United States

ICAO - FAT, IATA - FAT

Données fournies par Airmate  

Information générale

Coordonnées: N36°46'36" W119°43'8"
Élévation : 336 feet MSL.
Variation magnétique : 13° East
Voir autres Aéroports à California

Données opérationnelles

Special qualification required
Heure actuelle UTC:
Heure actuelle locale:
Météo
METAR: KFAT 262353Z 18008KT 10SM BKN200 36/05 A2986 RMK AO2 SLP105 MTNS OBSC FU HZ DSNT N-E-S T03610050 10367 20283 56002 $
TAF: KFAT 262351Z 2700/2724 30006KT P6SM SCT200
Voir NOTAMs / SUP AIP / TFR affectant cet aéroport [VIEW]
Fréquences de communication: [VIEW]

Pistes:

Identifiant RWYQFULongueur (ft)Largeur (ft)SurfaceLDA (ft)
11R125°8008150ASPH8008
29L305°8008150ASPH8008
11L125°9539150ASPH9279
29R305°9539150ASPH9227

Coordonnées de l'aéroport

Adresse: Fresno United States

Autres services d'aviation

Écoles de pilotage

Command Flight Center, Inc.

Command Flight Center, Inc.

Vue satellite de KFAT